Time,TemperatureF,DewpointF,PressureIn,WindDirection,WindDirectionDegrees,WindSpeedMPH,WindSpeedGustMPH,Humidity,HourlyPrecipIn,Conditions,Clouds,dailyrainin,SoftwareType,DateUTC
2013-01-08 00:03:00,45.2,41.0,30.17,SE,144,14.0,14.0,85,0.00,,---,0.00,VWS V14.01,2013-01-08 08:03:00,
2013-01-08 00:08:00,46.7,41.8,30.17,South,191,6.0,14.0,83,0.00,,---,0.00,VWS V14.01,2013-01-08 08:08:00,
2013-01-08 00:13:00,46.7,41.8,30.17,South,183,9.0,14.0,83,0.00,,---,0.00,VWS V14.01,2013-01-08 08:13:00,
2013-01-08 00:18:00,46.7,41.8,30.17,SSW,196,4.0,18.0,83,0.00,,---,0.00,VWS V14.01,2013-01-08 08:18:00,
2013-01-08 00:23:00,46.7,41.8,30.17,South,186,3.0,18.0,83,0.00,,---,0.00,VWS V14.01,2013-01-08 08:23:00,
2013-01-08 00:28:00,46.8,41.9,30.17,SSW,192,10.0,18.0,83,0.00,,---,0.00,VWS V14.01,2013-01-08 08:28:00,
2013-01-08 00:33:00,46.8,42.2,30.17,SSE,163,5.0,8.0,84,0.00,,---,0.00,VWS V14.01,2013-01-08 08:33:00,
2013-01-08 00:38:00,46.7,41.8,30.17,South,176,8.0,13.0,83,0.00,,---,0.00,VWS V14.01,2013-01-08 08:38:00,
2013-01-08 00:43:00,46.8,42.2,30.17,SSE,162,2.0,13.0,84,0.00,,---,0.00,VWS V14.01,2013-01-08 08:43:00,
2013-01-08 00:48:00,46.7,42.1,30.17,SSE,160,7.0,13.0,84,0.00,,---,0.00,VWS V14.01,2013-01-08 08:48:00,
2013-01-08 00:53:00,46.7,42.1,30.17,South,173,13.0,13.0,84,0.00,,---,0.00,VWS V14.01,2013-01-08 08:53:00,
2013-01-08 00:58:00,46.7,42.1,30.17,South,172,6.0,13.0,84,0.00,,---,0.00,VWS V14.01,2013-01-08 08:58:00,
2013-01-08 01:03:00,46.7,42.1,30.17,SSE,163,8.0,10.0,84,0.00,,---,0.00,VWS V14.01,2013-01-08 09:03:00,
2013-01-08 01:08:00,46.8,42.2,30.17,SSE,161,7.0,11.0,84,0.00,,---,0.00,VWS V14.01,2013-01-08 09:08:00,
2013-01-08 01:13:00,46.8,42.2,30.17,SSE,166,6.0,13.0,84,0.00,,---,0.00,VWS V14.01,2013-01-08 09:13:00,
2013-01-08 01:18:00,46.8,42.2,30.17,SSE,165,6.0,14.0,84,0.00,,---,0.00,VWS V14.01,2013-01-08 09:18:00,
2013-01-08 01:23:00,46.8,42.2,30.17,SW,224,4.0,14.0,84,0.00,,---,0.00,VWS V14.01,2013-01-08 09:23:00,
2013-01-08 01:28:00,46.8,42.2,30.17,South,182,5.0,14.0,84,0.00,,---,0.00,VWS V14.01,2013-01-08 09:28:00,
2013-01-08 01:33:00,46.7,42.1,30.17,South,187,7.0,11.0,84,0.00,,---,0.00,VWS V14.01,2013-01-08 09:33:00,
2013-01-08 01:38:00,46.7,42.1,30.17,SSE,155,9.0,11.0,84,0.00,,---,0.00,VWS V14.01,2013-01-08 09:38:00,
2013-01-08 01:43:00,46.7,42.1,30.17,SSE,153,10.0,16.0,84,0.00,,---,0.00,VWS V14.01,2013-01-08 09:43:00,
2013-01-08 01:48:00,46.7,42.1,30.17,South,170,12.0,12.0,84,0.00,,---,0.00,VWS V14.01,2013-01-08 09:48:00,
2013-01-08 01:53:00,46.7,41.8,30.17,SSE,168,7.0,20.0,83,0.00,,---,0.00,VWS V14.01,2013-01-08 09:53:00,
2013-01-08 01:58:00,46.7,41.8,30.16,SSE,162,7.0,20.0,83,0.00,,---,0.00,VWS V14.01,2013-01-08 09:58:00,
2013-01-08 02:03:00,46.8,41.9,30.16,SSE,167,5.0,11.0,83,0.00,,---,0.00,VWS V14.01,2013-01-08 10:03:00,
2013-01-08 02:08:00,46.7,41.8,30.16,South,171,8.0,13.0,83,0.00,,---,0.00,VWS V14.01,2013-01-08 10:08:00,
2013-01-08 02:12:00,46.7,42.1,30.16,SSE,154,10.0,14.0,84,0.00,,---,0.00,VWS V14.01,2013-01-08 10:12:00,
2013-01-08 02:17:00,46.7,42.1,30.16,SSE,165,2.0,10.0,84,0.00,,---,0.00,VWS V14.01,2013-01-08 10:17:00,
2013-01-08 02:22:00,46.7,42.1,30.16,SSW,196,4.0,13.0,84,0.00,,---,0.00,VWS V14.01,2013-01-08 10:22:00,
2013-01-08 02:27:00,46.7,42.1,30.16,SSE,154,12.0,15.0,84,0.00,,---,0.00,VWS V14.01,2013-01-08 10:27:00,
2013-01-08 02:32:00,46.6,42.0,30.16,SSE,164,8.0,15.0,84,0.00,,---,0.00,VWS V14.01,2013-01-08 10:32:00,
2013-01-08 02:37:00,46.6,42.0,30.16,SE,141,9.0,15.0,84,0.00,,---,0.00,VWS V14.01,2013-01-08 10:37:00,
2013-01-08 02:42:00,46.6,42.0,30.16,SSE,166,5.0,15.0,84,0.00,,---,0.00,VWS V14.01,2013-01-08 10:42:00,
2013-01-08 02:47:00,46.6,42.0,30.16,SSE,157,13.0,13.0,84,0.00,,---,0.00,VWS V14.01,2013-01-08 10:47:00,
2013-01-08 02:52:00,46.6,42.0,30.16,SSE,157,11.0,18.0,84,0.00,,---,0.00,VWS V14.01,2013-01-08 10:52:00,
2013-01-08 02:57:00,46.5,41.9,30.16,SSE,158,7.0,18.0,84,0.00,,---,0.00,VWS V14.01,2013-01-08 10:57:00,
2013-01-08 03:02:00,46.5,41.9,30.16,South,183,5.0,6.0,84,0.00,,---,0.00,VWS V14.01,2013-01-08 11:02:00,
2013-01-08 03:07:00,46.5,41.9,30.16,SSE,147,7.0,13.0,84,0.00,,---,0.00,VWS V14.01,2013-01-08 11:07:00,
2013-01-08 03:12:00,46.5,41.9,30.16,SSE,161,9.0,13.0,84,0.00,,---,0.00,VWS V14.01,2013-01-08 11:12:00,
2013-01-08 03:17:00,46.6,42.0,30.16,South,187,3.0,8.0,84,0.00,,---,0.00,VWS V14.01,2013-01-08 11:17:00,
2013-01-08 03:22:00,46.6,42.0,30.16,SSE,165,2.0,8.0,84,0.00,,---,0.00,VWS V14.01,2013-01-08 11:22:00,
2013-01-08 03:27:00,46.6,42.0,30.16,South,183,4.0,8.0,84,0.00,,---,0.00,VWS V14.01,2013-01-08 11:27:00,
2013-01-08 03:32:00,46.6,42.0,30.15,South,180,12.0,14.0,84,0.00,,---,0.00,VWS V14.01,2013-01-08 11:32:00,
2013-01-08 03:37:00,46.5,41.9,30.15,SSE,153,8.0,14.0,84,0.00,,---,0.00,VWS V14.01,2013-01-08 11:37:00,
2013-01-08 03:42:00,46.5,41.9,30.15,SSE,162,4.0,14.0,84,0.00,,---,0.00,VWS V14.01,2013-01-08 11:42:00,
2013-01-08 03:47:00,46.5,42.2,30.15,South,181,1.0,11.0,85,0.00,,---,0.00,VWS V14.01,2013-01-08 11:47:00,
2013-01-08 03:52:00,46.4,42.1,30.15,SSW,211,6.0,13.0,85,0.00,,---,0.00,VWS V14.01,2013-01-08 11:52:00,
2013-01-08 03:57:00,46.4,42.1,30.15,SW,228,3.0,13.0,85,0.00,,---,0.00,VWS V14.01,2013-01-08 11:57:00,
2013-01-08 04:02:00,46.4,42.1,30.15,South,182,2.0,11.0,85,0.00,,---,0.00,VWS V14.01,2013-01-08 12:02:00,
2013-01-08 04:07:00,46.4,42.1,30.15,SSE,162,2.0,11.0,85,0.00,,---,0.00,VWS V14.01,2013-01-08 12:07:00,
2013-01-08 04:12:00,46.5,42.2,30.15,SSW,196,3.0,11.0,85,0.00,,---,0.00,VWS V14.01,2013-01-08 12:12:00,
2013-01-08 04:17:00,46.5,42.2,30.15,SE,145,1.0,9.0,85,0.00,,---,0.00,VWS V14.01,2013-01-08 12:17:00,
2013-01-08 04:22:00,46.5,42.2,30.15,South,181,3.0,11.0,85,0.00,,---,0.00,VWS V14.01,2013-01-08 12:22:00,
2013-01-08 04:27:00,46.6,42.3,30.15,South,175,4.0,11.0,85,0.00,,---,0.00,VWS V14.01,2013-01-08 12:27:00,
2013-01-08 04:32:00,46.6,42.3,30.14,SSE,166,2.0,6.0,85,0.00,,---,0.00,VWS V14.01,2013-01-08 12:32:00,
2013-01-08 04:37:00,46.6,42.3,30.14,SSE,155,6.0,11.0,85,0.00,,---,0.00,VWS V14.01,2013-01-08 12:37:00,
2013-01-08 04:42:00,46.6,42.3,30.14,SSE,151,4.0,11.0,85,0.00,,---,0.00,VWS V14.01,2013-01-08 12:42:00,
2013-01-08 04:47:00,46.6,42.0,30.13,SE,137,1.0,4.0,84,0.00,,---,0.00,VWS V14.01,2013-01-08 12:47:00,
2013-01-08 04:52:00,46.6,42.3,30.13,SSE,164,5.0,6.0,85,0.00,,---,0.00,VWS V14.01,2013-01-08 12:52:00,
2013-01-08 04:57:00,46.7,42.4,30.14,SSE,164,0.0,6.0,85,0.00,,---,0.00,VWS V14.01,2013-01-08 12:57:00,
2013-01-08 05:02:00,46.6,42.3,30.14,SSE,165,4.0,5.0,85,0.00,,---,0.00,VWS V14.01,2013-01-08 13:02:00,
2013-01-08 05:07:00,46.5,42.2,30.13,SSE,155,5.0,9.0,85,0.00,,---,0.00,VWS V14.01,2013-01-08 13:07:00,
2013-01-08 05:12:00,46.5,42.2,30.13,SSE,161,6.0,9.0,85,0.00,,---,0.00,VWS V14.01,2013-01-08 13:12:00,
2013-01-08 05:17:00,46.5,41.9,30.13,SSE,156,7.0,11.0,84,0.00,,---,0.00,VWS V14.01,2013-01-08 13:17:00,
2013-01-08 05:22:00,46.5,42.2,30.12,SE,146,6.0,11.0,85,0.00,,---,0.00,VWS V14.01,2013-01-08 13:22:00,
2013-01-08 05:27:00,46.4,42.1,30.12,SE,141,5.0,11.0,85,0.00,,---,0.00,VWS V14.01,2013-01-08 13:27:00,
2013-01-08 05:32:00,46.3,42.0,30.12,SSE,149,7.0,8.0,85,0.00,,---,0.00,VWS V14.01,2013-01-08 13:32:00,
2013-01-08 05:37:00,46.3,42.0,30.13,SSE,163,6.0,11.0,85,0.00,,---,0.00,VWS V14.01,2013-01-08 13:37:00,
2013-01-08 05:42:00,46.2,42.0,30.12,SSE,160,5.0,11.0,85,0.00,,---,0.00,VWS V14.01,2013-01-08 13:42:00,
2013-01-08 05:47:00,46.2,42.0,30.12,SE,133,7.0,10.0,85,0.00,,---,0.00,VWS V14.01,2013-01-08 13:47:00,
2013-01-08 05:52:00,46.1,41.8,30.12,South,173,1.0,10.0,85,0.00,,---,0.00,VWS V14.01,2013-01-08 13:52:00,
2013-01-08 05:57:00,46.1,42.2,30.12,WSW,257,0.0,10.0,86,0.00,,---,0.00,VWS V14.01,2013-01-08 13:57:00,
2013-01-08 06:02:00,45.8,41.5,30.12,SSW,196,3.0,7.0,85,0.00,,---,0.00,VWS V14.01,2013-01-08 14:02:00,
2013-01-08 06:07:00,45.5,41.3,30.11,SSE,162,4.0,10.0,85,0.00,,---,0.00,VWS V14.01,2013-01-08 14:07:00,
2013-01-08 06:12:00,45.4,41.2,30.11,SSE,159,4.0,10.0,85,0.00,,---,0.00,VWS V14.01,2013-01-08 14:12:00,
2013-01-08 06:17:00,45.3,41.4,30.11,SSE,163,2.0,4.0,86,0.00,,---,0.00,VWS V14.01,2013-01-08 14:17:00,
2013-01-08 06:22:00,45.1,40.9,30.10,SSE,150,2.0,8.0,85,0.01,,---,0.01,VWS V14.01,2013-01-08 14:22:00,
2013-01-08 06:27:00,44.9,41.0,30.10,SSE,160,7.0,10.0,86,0.01,,---,0.01,VWS V14.01,2013-01-08 14:27:00,
2013-01-08 06:32:00,44.8,41.2,30.09,SSE,150,8.0,9.0,87,0.01,,---,0.01,VWS V14.01,2013-01-08 14:32:00,
2013-01-08 06:37:00,44.4,40.5,30.09,South,175,6.0,13.0,86,0.01,,---,0.01,VWS V14.01,2013-01-08 14:37:00,
2013-01-08 06:42:00,44.1,39.9,30.08,SSE,153,4.0,13.0,85,0.01,,---,0.01,VWS V14.01,2013-01-08 14:42:00,
2013-01-08 06:47:00,43.9,39.4,30.08,SSE,150,4.0,9.0,84,0.01,,---,0.01,VWS V14.01,2013-01-08 14:47:00,
2013-01-08 06:52:00,43.7,39.5,30.08,SSE,162,7.0,9.0,85,0.02,,---,0.02,VWS V14.01,2013-01-08 14:52:00,
2013-01-08 06:57:00,43.4,39.5,30.07,SE,128,4.0,9.0,86,0.02,,---,0.02,VWS V14.01,2013-01-08 14:57:00,
2013-01-08 07:02:00,43.2,39.6,30.07,SSE,161,4.0,10.0,87,0.02,,---,0.02,VWS V14.01,2013-01-08 15:02:00,
2013-01-08 07:07:00,43.1,39.8,30.07,SSE,147,6.0,10.0,88,0.02,,---,0.02,VWS V14.01,2013-01-08 15:07:00,
2013-01-08 07:12:00,43.1,39.8,30.07,SSE,153,7.0,11.0,88,0.03,,---,0.03,VWS V14.01,2013-01-08 15:12:00,
2013-01-08 07:17:00,43.2,39.9,30.07,SE,143,7.0,9.0,88,0.04,,---,0.04,VWS V14.01,2013-01-08 15:17:00,
2013-01-08 07:22:00,43.2,39.9,30.07,SE,144,4.0,10.0,88,0.04,,---,0.04,VWS V14.01,2013-01-08 15:22:00,
2013-01-08 07:27:00,43.3,40.3,30.07,SSE,150,0.0,10.0,89,0.05,,---,0.05,VWS V14.01,2013-01-08 15:27:00,
2013-01-08 07:32:00,43.3,40.0,30.07,SSE,153,1.0,4.0,88,0.04,,---,0.05,VWS V14.01,2013-01-08 15:32:00,
2013-01-08 07:37:00,43.3,40.0,30.06,SSE,159,0.0,5.0,88,0.05,,---,0.06,VWS V14.01,2013-01-08 15:37:00,
2013-01-08 07:42:00,43.4,40.1,30.06,South,182,0.0,5.0,88,0.05,,---,0.06,VWS V14.01,2013-01-08 15:42:00,
2013-01-08 07:47:00,43.4,40.1,30.06,SSE,153,1.0,1.0,88,0.05,,---,0.06,VWS V14.01,2013-01-08 15:47:00,
2013-01-08 07:52:00,43.4,40.4,30.06,SSE,150,0.0,2.0,89,0.06,,---,0.07,VWS V14.01,2013-01-08 15:52:00,
2013-01-08 07:57:00,43.4,40.4,30.06,SSE,159,1.0,6.0,89,0.06,,---,0.07,VWS V14.01,2013-01-08 15:57:00,
2013-01-08 08:02:00,43.5,40.5,30.06,SSE,159,1.0,4.0,89,0.05,,---,0.07,VWS V14.01,2013-01-08 16:02:00,
2013-01-08 08:07:00,43.5,40.8,30.05,SSE,159,0.0,4.0,90,0.06,,---,0.08,VWS V14.01,2013-01-08 16:07:00,
2013-01-08 08:12:00,43.5,40.8,30.05,SSE,159,0.0,4.0,90,0.06,,---,0.08,VWS V14.01,2013-01-08 16:12:00,
2013-01-08 08:17:00,43.5,40.8,30.05,South,169,4.0,6.0,90,0.05,,---,0.08,VWS V14.01,2013-01-08 16:17:00,
2013-01-08 08:22:00,43.4,40.7,30.05,SSE,167,4.0,6.0,90,0.06,,---,0.09,VWS V14.01,2013-01-08 16:22:00,
2013-01-08 08:27:00,43.3,40.8,30.05,SSE,148,0.0,6.0,91,0.06,,---,0.09,VWS V14.01,2013-01-08 16:27:00,
2013-01-08 08:32:00,43.3,40.8,30.05,SSE,161,0.0,1.0,91,0.05,,---,0.10,VWS V14.01,2013-01-08 16:32:00,
2013-01-08 08:37:00,43.3,40.8,30.05,SSE,160,0.0,5.0,91,0.05,,---,0.10,VWS V14.01,2013-01-08 16:37:00,
2013-01-08 08:42:00,43.2,40.8,30.05,SSE,149,2.0,5.0,91,0.05,,---,0.10,VWS V14.01,2013-01-08 16:42:00,
2013-01-08 08:47:00,43.2,40.8,30.05,SSE,148,1.0,2.0,91,0.05,,---,0.11,VWS V14.01,2013-01-08 16:47:00,
2013-01-08 08:52:00,43.0,40.6,30.05,SSE,162,6.0,10.0,91,0.05,,---,0.11,VWS V14.01,2013-01-08 16:52:00,
2013-01-08 08:57:00,42.9,40.5,30.05,SSE,157,5.0,10.0,91,0.06,,---,0.12,VWS V14.01,2013-01-08 16:57:00,
2013-01-08 09:02:00,42.8,40.4,30.05,SE,145,0.0,1.0,91,0.05,,---,0.12,VWS V14.01,2013-01-08 17:02:00,
2013-01-08 09:07:00,42.9,40.5,30.04,SSE,157,0.0,5.0,91,0.06,,---,0.13,VWS V14.01,2013-01-08 17:07:00,
2013-01-08 09:12:00,42.9,40.5,30.04,SSE,157,0.0,5.0,91,0.06,,---,0.13,VWS V14.01,2013-01-08 17:12:00,
2013-01-08 09:17:00,43.0,40.6,30.04,SSE,157,0.0,0.0,91,0.06,,---,0.14,VWS V14.01,2013-01-08 17:17:00,
2013-01-08 09:22:00,43.0,40.6,30.03,SE,146,0.0,4.0,91,0.06,,---,0.14,VWS V14.01,2013-01-08 17:22:00,
2013-01-08 09:27:00,43.0,40.6,30.03,SE,146,0.0,4.0,91,0.06,,---,0.14,VWS V14.01,2013-01-08 17:27:00,
2013-01-08 09:32:00,43.0,40.6,30.03,SSE,153,4.0,7.0,91,0.04,,---,0.14,VWS V14.01,2013-01-08 17:32:00,
2013-01-08 09:37:00,42.8,40.4,30.02,SSE,156,2.0,7.0,91,0.05,,---,0.15,VWS V14.01,2013-01-08 17:37:00,
2013-01-08 09:42:00,42.8,40.4,30.01,SSE,154,0.0,7.0,91,0.05,,---,0.15,VWS V14.01,2013-01-08 17:42:00,
2013-01-08 09:47:00,42.9,40.7,30.01,SSE,159,9.0,9.0,92,0.04,,---,0.15,VWS V14.01,2013-01-08 17:47:00,
2013-01-08 09:52:00,42.8,40.4,30.01,SSE,166,0.0,9.0,91,0.04,,---,0.15,VWS V14.01,2013-01-08 17:52:00,
2013-01-08 09:57:00,42.7,40.3,30.01,SSE,163,0.0,9.0,91,0.04,,---,0.15,VWS V14.01,2013-01-08 17:57:00,
2013-01-08 10:02:00,42.6,40.4,30.01,SSE,152,0.0,7.0,92,0.03,,---,0.15,VWS V14.01,2013-01-08 18:02:00,
2013-01-08 10:07:00,42.5,40.3,30.00,SSE,153,5.0,8.0,92,0.03,,---,0.15,VWS V14.01,2013-01-08 18:07:00,
2013-01-08 10:12:00,42.4,40.2,30.00,ESE,121,6.0,8.0,92,0.04,,---,0.16,VWS V14.01,2013-01-08 18:12:00,
2013-01-08 10:17:00,42.4,40.2,29.99,NW,323,1.0,3.0,92,0.02,,---,0.16,VWS V14.01,2013-01-08 18:17:00,
2013-01-08 10:22:00,42.3,40.2,29.99,SSE,153,0.0,9.0,92,0.02,,---,0.16,VWS V14.01,2013-01-08 18:22:00,
2013-01-08 10:27:00,42.4,40.2,29.99,SSE,155,0.0,9.0,92,0.02,,---,0.16,VWS V14.01,2013-01-08 18:27:00,
2013-01-08 10:32:00,42.6,40.7,29.99,SSE,155,2.0,4.0,93,0.02,,---,0.16,VWS V14.01,2013-01-08 18:32:00,
2013-01-08 10:37:00,42.6,40.7,29.98,SE,146,11.0,11.0,93,0.02,,---,0.16,VWS V14.01,2013-01-08 18:37:00,
2013-01-08 10:42:00,42.6,40.7,29.98,SSE,157,6.0,13.0,93,0.02,,---,0.16,VWS V14.01,2013-01-08 18:42:00,
2013-01-08 10:47:00,42.6,40.7,29.97,ESE,118,2.0,8.0,93,0.02,,---,0.17,VWS V14.01,2013-01-08 18:47:00,
2013-01-08 10:52:00,42.7,40.8,29.96,SE,144,1.0,11.0,93,0.02,,---,0.17,VWS V14.01,2013-01-08 18:52:00,
2013-01-08 10:57:00,42.7,40.8,29.97,SE,145,6.0,11.0,93,0.02,,---,0.17,VWS V14.01,2013-01-08 18:57:00,
2013-01-08 11:02:00,42.8,40.9,29.96,SSE,148,0.0,0.0,93,0.02,,---,0.17,VWS V14.01,2013-01-08 19:02:00,
2013-01-08 11:07:00,42.8,40.9,29.95,SSE,159,4.0,9.0,93,0.02,,---,0.17,VWS V14.01,2013-01-08 19:07:00,
2013-01-08 11:12:00,42.9,41.0,29.95,SSE,147,4.0,10.0,93,0.02,,---,0.17,VWS V14.01,2013-01-08 19:12:00,
2013-01-08 11:17:00,43.0,41.1,29.95,SSE,157,2.0,4.0,93,0.01,,---,0.17,VWS V14.01,2013-01-08 19:17:00,
2013-01-08 11:22:00,43.1,41.2,29.95,SSE,148,0.0,7.0,93,0.01,,---,0.17,VWS V14.01,2013-01-08 19:22:00,
2013-01-08 11:27:00,43.4,41.8,29.94,SSE,148,0.0,7.0,94,0.01,,---,0.17,VWS V14.01,2013-01-08 19:27:00,
2013-01-08 11:32:00,43.7,42.1,29.94,SSE,152,5.0,8.0,94,0.02,,---,0.18,VWS V14.01,2013-01-08 19:32:00,
2013-01-08 11:37:00,43.8,42.2,29.94,South,173,0.0,9.0,94,0.02,,---,0.18,VWS V14.01,2013-01-08 19:37:00,
2013-01-08 11:42:00,43.8,42.2,29.94,SSE,165,4.0,9.0,94,0.02,,---,0.18,VWS V14.01,2013-01-08 19:42:00,
2013-01-08 11:47:00,43.6,41.7,29.94,SSE,157,11.0,14.0,93,0.01,,---,0.18,VWS V14.01,2013-01-08 19:47:00,
2013-01-08 11:52:00,43.6,41.7,29.94,SSE,156,9.0,14.0,93,0.01,,---,0.18,VWS V14.01,2013-01-08 19:52:00,
2013-01-08 11:57:00,43.7,41.8,29.93,SSW,203,7.0,14.0,93,0.01,,---,0.18,VWS V14.01,2013-01-08 19:57:00,
2013-01-08 12:02:00,43.8,42.2,29.92,SE,132,5.0,5.0,94,0.01,,---,0.18,VWS V14.01,2013-01-08 20:02:00,
2013-01-08 12:07:00,44.0,42.4,29.93,SSW,194,2.0,6.0,94,0.01,,---,0.18,VWS V14.01,2013-01-08 20:07:00,
2013-01-08 12:12:00,44.1,42.5,29.92,South,190,3.0,9.0,94,0.01,,---,0.18,VWS V14.01,2013-01-08 20:12:00,
2013-01-08 12:17:00,44.2,42.6,29.92,South,180,8.0,9.0,94,0.01,,---,0.18,VWS V14.01,2013-01-08 20:17:00,
2013-01-08 12:22:00,44.2,42.6,29.92,South,191,4.0,10.0,94,0.01,,---,0.18,VWS V14.01,2013-01-08 20:22:00,
2013-01-08 12:27:00,44.2,42.6,29.91,SE,130,7.0,10.0,94,0.01,,---,0.18,VWS V14.01,2013-01-08 20:27:00,
2013-01-08 12:32:00,44.4,42.8,29.91,SSE,166,4.0,6.0,94,0.02,,---,0.19,VWS V14.01,2013-01-08 20:32:00,
2013-01-08 12:37:00,44.6,43.0,29.91,SSE,158,6.0,12.0,94,0.02,,---,0.19,VWS V14.01,2013-01-08 20:37:00,
2013-01-08 12:42:00,44.9,43.3,29.91,South,174,4.0,12.0,94,0.02,,---,0.19,VWS V14.01,2013-01-08 20:42:00,
2013-01-08 12:47:00,45.2,43.6,29.91,South,186,1.0,6.0,94,0.01,,---,0.19,VWS V14.01,2013-01-08 20:47:00,
2013-01-08 12:52:00,45.4,43.8,29.90,SSE,167,2.0,14.0,94,0.02,,---,0.20,VWS V14.01,2013-01-08 20:52:00,
2013-01-08 12:57:00,45.7,44.1,29.90,SSE,150,5.0,15.0,94,0.02,,---,0.20,VWS V14.01,2013-01-08 20:57:00,
2013-01-08 13:02:00,46.0,44.4,29.90,SSE,156,2.0,7.0,94,0.03,,---,0.21,VWS V14.01,2013-01-08 21:02:00,
2013-01-08 13:07:00,46.2,44.6,29.90,SE,130,6.0,17.0,94,0.03,,---,0.21,VWS V14.01,2013-01-08 21:07:00,
2013-01-08 13:12:00,46.4,44.8,29.90,SSE,161,5.0,18.0,94,0.03,,---,0.21,VWS V14.01,2013-01-08 21:12:00,
2013-01-08 13:17:00,46.5,44.9,29.90,SSE,167,8.0,18.0,94,0.03,,---,0.21,VWS V14.01,2013-01-08 21:17:00,
2013-01-08 13:22:00,46.7,45.1,29.89,SSW,195,2.0,18.0,94,0.04,,---,0.22,VWS V14.01,2013-01-08 21:22:00,
2013-01-08 13:27:00,46.8,45.2,29.89,SSE,165,4.0,18.0,94,0.04,,---,0.22,VWS V14.01,2013-01-08 21:27:00,
2013-01-08 13:32:00,47.0,45.4,29.88,SSE,148,7.0,8.0,94,0.04,,---,0.23,VWS V14.01,2013-01-08 21:32:00,
2013-01-08 13:37:00,47.1,45.5,29.87,SSE,154,1.0,9.0,94,0.04,,---,0.23,VWS V14.01,2013-01-08 21:37:00,
2013-01-08 13:42:00,47.4,45.8,29.87,SSE,164,0.0,13.0,94,0.04,,---,0.23,VWS V14.01,2013-01-08 21:42:00,
2013-01-08 13:47:00,47.6,46.0,29.87,South,178,5.0,8.0,94,0.05,,---,0.24,VWS V14.01,2013-01-08 21:47:00,
2013-01-08 13:52:00,47.9,46.3,29.87,SSE,160,0.0,10.0,94,0.05,,---,0.24,VWS V14.01,2013-01-08 21:52:00,
2013-01-08 13:57:00,48.1,46.5,29.87,SSE,161,4.0,11.0,94,0.05,,---,0.24,VWS V14.01,2013-01-08 21:57:00,
2013-01-08 14:02:00,48.3,46.7,29.86,SSE,151,1.0,1.0,94,0.03,,---,0.24,VWS V14.01,2013-01-08 22:02:00,
2013-01-08 14:07:00,48.4,46.8,29.87,SSE,156,1.0,8.0,94,0.03,,---,0.24,VWS V14.01,2013-01-08 22:07:00,
2013-01-08 14:12:00,48.7,47.0,29.87,South,191,6.0,17.0,94,0.04,,---,0.25,VWS V14.01,2013-01-08 22:12:00,
2013-01-08 14:17:00,48.8,47.2,29.86,SSW,205,1.0,3.0,94,0.05,,---,0.26,VWS V14.01,2013-01-08 22:17:00,
2013-01-08 14:22:00,49.0,47.3,29.86,South,178,4.0,8.0,94,0.05,,---,0.26,VWS V14.01,2013-01-08 22:22:00,
2013-01-08 14:27:00,49.2,47.5,29.86,SSE,158,12.0,12.0,94,0.06,,---,0.27,VWS V14.01,2013-01-08 22:27:00,
2013-01-08 14:32:00,49.3,47.7,29.86,SSE,161,5.0,5.0,94,0.05,,---,0.28,VWS V14.01,2013-01-08 22:32:00,
2013-01-08 14:36:00,49.5,47.8,29.86,South,182,3.0,9.0,94,0.06,,---,0.29,VWS V14.01,2013-01-08 22:36:00,
2013-01-08 14:41:00,49.6,48.0,29.86,South,180,6.0,14.0,94,0.06,,---,0.29,VWS V14.01,2013-01-08 22:41:00,
2013-01-08 14:46:00,49.8,48.2,29.86,South,181,5.0,11.0,94,0.05,,---,0.29,VWS V14.01,2013-01-08 22:46:00,
2013-01-08 14:51:00,50.1,48.4,29.86,SSE,160,10.0,19.0,94,0.05,,---,0.29,VWS V14.01,2013-01-08 22:51:00,
2013-01-08 14:57:00,50.3,48.6,29.87,South,186,5.0,19.0,94,0.06,,---,0.30,VWS V14.01,2013-01-08 22:57:00,
2013-01-08 15:02:00,50.4,48.7,29.86,SSE,150,8.0,11.0,94,0.06,,---,0.30,VWS V14.01,2013-01-08 23:02:00,
2013-01-08 15:07:00,50.3,48.6,29.86,SE,142,9.0,15.0,94,0.06,,---,0.30,VWS V14.01,2013-01-08 23:07:00,
2013-01-08 15:12:00,50.3,48.6,29.86,South,178,8.0,15.0,94,0.07,,---,0.31,VWS V14.01,2013-01-08 23:12:00,
2013-01-08 15:17:00,50.3,48.6,29.86,South,170,5.0,14.0,94,0.07,,---,0.32,VWS V14.01,2013-01-08 23:17:00,
2013-01-08 15:22:00,50.4,48.7,29.86,South,169,1.0,22.0,94,0.08,,---,0.33,VWS V14.01,2013-01-08 23:22:00,
2013-01-08 15:26:00,50.4,48.7,29.85,SE,131,1.0,22.0,94,0.08,,---,0.33,VWS V14.01,2013-01-08 23:26:00,
2013-01-08 15:31:00,50.5,48.8,29.85,SSW,192,2.0,14.0,94,0.06,,---,0.34,VWS V14.01,2013-01-08 23:31:00,
2013-01-08 15:36:00,50.6,48.7,29.85,SSW,210,5.0,14.0,93,0.06,,---,0.34,VWS V14.01,2013-01-08 23:36:00,
2013-01-08 15:41:00,50.6,48.7,29.84,SSE,154,7.0,20.0,93,0.06,,---,0.34,VWS V14.01,2013-01-08 23:41:00,
2013-01-08 15:46:00,50.7,48.8,29.84,SSE,156,15.0,15.0,93,0.05,,---,0.34,VWS V14.01,2013-01-08 23:46:00,
2013-01-08 15:51:00,50.9,49.0,29.83,SW,230,4.0,20.0,93,0.05,,---,0.34,VWS V14.01,2013-01-08 23:51:00,
2013-01-08 15:56:00,50.9,49.0,29.83,SSW,206,0.0,20.0,93,0.05,,---,0.34,VWS V14.01,2013-01-08 23:56:00,
2013-01-08 16:01:00,51.2,49.0,29.82,NNW,328,0.0,2.0,92,0.05,,---,0.35,VWS V14.01,2013-01-09 00:01:00,
2013-01-08 16:06:00,51.4,48.9,29.82,SE,135,14.0,19.0,91,0.05,,---,0.35,VWS V14.01,2013-01-09 00:06:00,
2013-01-08 16:11:00,51.7,48.9,29.82,South,178,20.0,21.0,90,0.05,,---,0.35,VWS V14.01,2013-01-09 00:11:00,
2013-01-08 16:16:00,51.9,48.8,29.81,SSW,209,11.0,14.0,89,0.03,,---,0.35,VWS V14.01,2013-01-09 00:16:00,
2013-01-08 16:21:00,52.0,48.9,29.80,West,277,1.0,15.0,89,0.03,,---,0.35,VWS V14.01,2013-01-09 00:21:00,
2013-01-08 16:26:00,52.1,48.7,29.80,South,179,8.0,21.0,88,0.03,,---,0.35,VWS V14.01,2013-01-09 00:26:00,
2013-01-08 16:31:00,52.2,48.8,29.80,SSE,159,10.0,16.0,88,0.01,,---,0.35,VWS V14.01,2013-01-09 00:31:00,
2013-01-08 16:36:00,52.3,48.9,29.80,SSW,205,8.0,26.0,88,0.01,,---,0.35,VWS V14.01,2013-01-09 00:36:00,
2013-01-08 16:41:00,52.4,48.7,29.80,SSE,152,16.0,26.0,87,0.01,,---,0.35,VWS V14.01,2013-01-09 00:41:00,
2013-01-08 16:46:00,52.5,48.8,29.79,South,181,17.0,20.0,87,0.01,,---,0.35,VWS V14.01,2013-01-09 00:46:00,
2013-01-08 16:51:00,52.6,48.8,29.80,SSE,165,14.0,22.0,87,0.01,,---,0.35,VWS V14.01,2013-01-09 00:51:00,
2013-01-08 16:56:00,52.7,48.6,29.80,SSE,161,7.0,26.0,86,0.01,,---,0.35,VWS V14.01,2013-01-09 00:56:00,
2013-01-08 17:01:00,52.7,48.6,29.80,SW,215,1.0,14.0,86,0.00,,---,0.35,VWS V14.01,2013-01-09 01:01:00,
2013-01-08 17:06:00,52.6,48.8,29.80,South,190,6.0,23.0,87,0.00,,---,0.35,VWS V14.01,2013-01-09 01:06:00,
2013-01-08 17:11:00,52.4,48.7,29.80,SSE,162,12.0,32.0,87,0.00,,---,0.35,VWS V14.01,2013-01-09 01:11:00,
2013-01-08 17:16:00,52.3,48.9,29.80,SSW,194,15.0,18.0,88,0.01,,---,0.36,VWS V14.01,2013-01-09 01:16:00,
2013-01-08 17:21:00,52.2,48.8,29.80,SSE,166,22.0,26.0,88,0.01,,---,0.36,VWS V14.01,2013-01-09 01:21:00,
2013-01-08 17:26:00,52.2,48.8,29.79,South,186,20.0,26.0,88,0.01,,---,0.36,VWS V14.01,2013-01-09 01:26:00,
2013-01-08 17:31:00,52.3,48.5,29.79,SSE,159,7.0,13.0,87,0.01,,---,0.36,VWS V14.01,2013-01-09 01:31:00,
2013-01-08 17:36:00,52.3,48.5,29.79,SSE,160,9.0,21.0,87,0.01,,---,0.36,VWS V14.01,2013-01-09 01:36:00,
2013-01-08 17:41:00,52.3,48.5,29.79,SSW,209,15.0,21.0,87,0.01,,---,0.36,VWS V14.01,2013-01-09 01:41:00,
2013-01-08 17:46:00,52.4,48.7,29.79,SSW,200,17.0,18.0,87,0.01,,---,0.36,VWS V14.01,2013-01-09 01:46:00,
2013-01-08 17:51:00,52.4,48.7,29.78,SSE,165,21.0,29.0,87,0.01,,---,0.36,VWS V14.01,2013-01-09 01:51:00,
2013-01-08 17:56:00,52.2,48.8,29.78,SE,144,13.0,29.0,88,0.01,,---,0.36,VWS V14.01,2013-01-09 01:56:00,
2013-01-08 18:01:00,52.2,48.8,29.78,SSE,167,16.0,18.0,88,0.02,,---,0.37,VWS V14.01,2013-01-09 02:01:00,
2013-01-08 18:06:00,52.0,48.6,29.78,SSE,150,6.0,30.0,88,0.02,,---,0.37,VWS V14.01,2013-01-09 02:06:00,
2013-01-08 18:11:00,51.9,48.8,29.78,South,172,5.0,30.0,89,0.02,,---,0.37,VWS V14.01,2013-01-09 02:11:00,
2013-01-08 18:16:00,52.0,48.6,29.78,South,184,10.0,19.0,88,0.01,,---,0.37,VWS V14.01,2013-01-09 02:16:00,
2013-01-08 18:21:00,51.9,48.8,29.78,SSE,162,20.0,23.0,89,0.01,,---,0.37,VWS V14.01,2013-01-09 02:21:00,
2013-01-08 18:26:00,52.0,48.6,29.77,SSW,200,12.0,23.0,88,0.01,,---,0.37,VWS V14.01,2013-01-09 02:26:00,
2013-01-08 18:31:00,52.3,48.5,29.77,South,171,22.0,22.0,87,0.01,,---,0.37,VWS V14.01,2013-01-09 02:31:00,
2013-01-08 18:36:00,52.5,48.4,29.77,South,182,6.0,25.0,86,0.01,,---,0.37,VWS V14.01,2013-01-09 02:36:00,
2013-01-08 18:41:00,52.5,48.4,29.77,SSE,161,10.0,28.0,86,0.01,,---,0.37,VWS V14.01,2013-01-09 02:41:00,
2013-01-08 18:46:00,52.5,48.4,29.77,South,186,8.0,21.0,86,0.01,,---,0.37,VWS V14.01,2013-01-09 02:46:00,
2013-01-08 18:51:00,52.4,48.3,29.76,SSW,194,12.0,29.0,86,0.01,,---,0.37,VWS V14.01,2013-01-09 02:51:00,
2013-01-08 18:56:00,52.4,48.3,29.76,South,169,8.0,29.0,86,0.01,,---,0.37,VWS V14.01,2013-01-09 02:56:00,
2013-01-08 19:01:00,52.6,48.2,29.76,South,172,17.0,18.0,85,0.00,,---,0.37,VWS V14.01,2013-01-09 03:01:00,
2013-01-08 19:06:00,52.8,48.4,29.76,SE,146,11.0,24.0,85,0.00,,---,0.37,VWS V14.01,2013-01-09 03:06:00,
2013-01-08 19:11:00,52.7,48.3,29.75,SSE,148,26.0,28.0,85,0.00,,---,0.37,VWS V14.01,2013-01-09 03:11:00,
2013-01-08 19:16:00,52.8,48.4,29.76,South,173,16.0,24.0,85,0.00,,---,0.37,VWS V14.01,2013-01-09 03:16:00,
2013-01-08 19:21:00,52.8,48.4,29.76,South,171,13.0,24.0,85,0.00,,---,0.37,VWS V14.01,2013-01-09 03:21:00,
2013-01-08 19:26:00,52.7,48.3,29.76,South,187,8.0,24.0,85,0.00,,---,0.37,VWS V14.01,2013-01-09 03:26:00,
2013-01-08 19:31:00,52.6,48.2,29.76,SSE,161,7.0,10.0,85,0.00,,---,0.37,VWS V14.01,2013-01-09 03:31:00,
2013-01-08 19:36:00,52.6,48.2,29.76,South,179,12.0,27.0,85,0.00,,---,0.37,VWS V14.01,2013-01-09 03:36:00,
2013-01-08 19:41:00,52.6,48.2,29.76,SE,144,24.0,29.0,85,0.00,,---,0.37,VWS V14.01,2013-01-09 03:41:00,
2013-01-08 19:46:00,52.6,48.2,29.76,SE,146,15.0,15.0,85,0.00,,---,0.37,VWS V14.01,2013-01-09 03:46:00,
2013-01-08 19:51:00,52.7,48.3,29.76,SSE,148,9.0,23.0,85,0.00,,---,0.37,VWS V14.01,2013-01-09 03:51:00,
2013-01-08 19:56:00,52.8,48.1,29.76,SSE,163,5.0,26.0,84,0.00,,---,0.37,VWS V14.01,2013-01-09 03:56:00,
2013-01-08 20:01:00,52.8,48.1,29.76,SW,215,14.0,18.0,84,0.00,,---,0.37,VWS V14.01,2013-01-09 04:01:00,
2013-01-08 20:06:00,52.8,48.1,29.77,SSE,162,16.0,26.0,84,0.00,,---,0.37,VWS V14.01,2013-01-09 04:06:00,
2013-01-08 20:11:00,52.8,48.1,29.76,South,172,9.0,26.0,84,0.00,,---,0.37,VWS V14.01,2013-01-09 04:11:00,
2013-01-08 20:16:00,52.6,48.2,29.76,SSE,161,8.0,11.0,85,0.00,,---,0.37,VWS V14.01,2013-01-09 04:16:00,
2013-01-08 20:21:00,52.4,48.0,29.75,SSE,167,13.0,19.0,85,0.00,,---,0.37,VWS V14.01,2013-01-09 04:21:00,
2013-01-08 20:26:00,52.3,48.2,29.76,SSE,154,11.0,27.0,86,0.00,,---,0.37,VWS V14.01,2013-01-09 04:26:00,
2013-01-08 20:31:00,52.2,48.2,29.75,SE,138,13.0,14.0,86,0.00,,---,0.37,VWS V14.01,2013-01-09 04:31:00,
2013-01-08 20:36:00,52.1,48.0,29.75,South,169,13.0,31.0,86,0.00,,---,0.37,VWS V14.01,2013-01-09 04:36:00,
2013-01-08 20:41:00,52.1,48.0,29.75,SE,136,22.0,32.0,86,0.00,,---,0.37,VWS V14.01,2013-01-09 04:41:00,
2013-01-08 20:46:00,52.1,48.4,29.75,SSE,159,19.0,19.0,87,0.00,,---,0.37,VWS V14.01,2013-01-09 04:46:00,
2013-01-08 20:51:00,52.1,48.0,29.75,SW,223,13.0,28.0,86,0.00,,---,0.37,VWS V14.01,2013-01-09 04:51:00,
2013-01-08 20:56:00,52.0,48.3,29.75,SSE,157,16.0,28.0,87,0.00,,---,0.37,VWS V14.01,2013-01-09 04:56:00,
2013-01-08 21:00:00,51.9,48.2,29.74,SSE,164,12.0,28.0,87,0.00,,---,0.37,VWS V14.01,2013-01-09 05:00:00,
2013-01-08 21:01:00,51.9,48.2,29.74,SSE,161,14.0,28.0,87,0.01,,---,0.38,VWS V14.01,2013-01-09 05:01:00,
2013-01-08 21:03:00,51.9,48.2,29.74,SSE,157,19.0,22.0,87,0.01,,---,0.38,VWS V14.01,2013-01-09 05:03:00,
2013-01-08 21:08:00,51.9,48.2,29.75,SSE,167,11.0,30.0,87,0.01,,---,0.38,VWS V14.01,2013-01-09 05:08:00,
2013-01-08 21:13:00,51.9,48.2,29.75,South,174,13.0,30.0,87,0.01,,---,0.38,VWS V14.01,2013-01-09 05:13:00,
2013-01-08 21:18:00,51.9,48.2,29.75,SE,141,8.0,22.0,87,0.02,,---,0.39,VWS V14.01,2013-01-09 05:18:00,
2013-01-08 21:23:00,51.8,48.1,29.75,SSE,163,26.0,26.0,87,0.02,,---,0.39,VWS V14.01,2013-01-09 05:23:00,
2013-01-08 21:28:00,51.7,48.3,29.75,South,188,13.0,29.0,88,0.02,,---,0.39,VWS V14.01,2013-01-09 05:28:00,
2013-01-08 21:33:00,51.6,48.2,29.74,SSE,157,18.0,32.0,88,0.03,,---,0.40,VWS V14.01,2013-01-09 05:33:00,
2013-01-08 21:38:00,51.6,48.2,29.75,SW,229,12.0,32.0,88,0.03,,---,0.40,VWS V14.01,2013-01-09 05:38:00,
2013-01-08 21:43:00,51.5,48.1,29.75,SSE,163,9.0,32.0,88,0.04,,---,0.41,VWS V14.01,2013-01-09 05:43:00,
2013-01-08 21:48:00,51.4,48.0,29.75,South,188,14.0,19.0,88,0.04,,---,0.41,VWS V14.01,2013-01-09 05:48:00,
2013-01-08 21:53:00,51.4,48.3,29.75,SSE,161,24.0,27.0,89,0.05,,---,0.42,VWS V14.01,2013-01-09 05:53:00,
2013-01-08 21:58:00,51.4,48.3,29.75,SSE,151,14.0,28.0,89,0.06,,---,0.43,VWS V14.01,2013-01-09 05:58:00,
2013-01-08 22:03:00,51.3,48.2,29.75,South,180,13.0,21.0,89,0.06,,---,0.44,VWS V14.01,2013-01-09 06:03:00,
2013-01-08 22:08:00,51.3,48.2,29.75,SW,229,11.0,26.0,89,0.07,,---,0.45,VWS V14.01,2013-01-09 06:08:00,
2013-01-08 22:13:00,51.3,48.2,29.75,NNE,14,6.0,34.0,89,0.08,,---,0.46,VWS V14.01,2013-01-09 06:13:00,
2013-01-08 22:18:00,51.2,48.4,29.75,South,170,18.0,22.0,90,0.08,,---,0.47,VWS V14.01,2013-01-09 06:18:00,
2013-01-08 22:23:00,51.2,48.4,29.75,SSW,198,9.0,30.0,90,0.10,,---,0.49,VWS V14.01,2013-01-09 06:23:00,
2013-01-08 22:28:00,51.0,48.2,29.75,South,184,8.0,30.0,90,0.12,,---,0.51,VWS V14.01,2013-01-09 06:28:00,
2013-01-08 22:33:00,51.1,48.3,29.75,SSW,194,9.0,20.0,90,0.12,,---,0.52,VWS V14.01,2013-01-09 06:33:00,
2013-01-08 22:38:00,51.0,48.2,29.75,South,182,14.0,20.0,90,0.13,,---,0.53,VWS V14.01,2013-01-09 06:38:00,
2013-01-08 22:43:00,51.0,48.2,29.75,SSE,165,13.0,28.0,90,0.14,,---,0.54,VWS V14.01,2013-01-09 06:43:00,
2013-01-08 22:48:00,51.0,48.2,29.75,SSE,155,11.0,20.0,90,0.14,,---,0.55,VWS V14.01,2013-01-09 06:48:00,
2013-01-08 22:53:00,51.0,48.2,29.75,WNW,293,9.0,21.0,90,0.15,,---,0.56,VWS V14.01,2013-01-09 06:53:00,
2013-01-08 22:58:00,51.0,48.2,29.75,WSW,257,6.0,21.0,90,0.16,,---,0.57,VWS V14.01,2013-01-09 06:58:00,
2013-01-08 23:03:00,51.0,48.2,29.75,SSW,202,8.0,25.0,90,0.14,,---,0.58,VWS V14.01,2013-01-09 07:03:00,
2013-01-08 23:08:00,50.9,48.4,29.75,South,172,5.0,25.0,91,0.15,,---,0.59,VWS V14.01,2013-01-09 07:08:00,
2013-01-08 23:13:00,50.8,48.3,29.75,SSE,164,9.0,28.0,91,0.17,,---,0.61,VWS V14.01,2013-01-09 07:13:00,
2013-01-08 23:18:00,50.7,48.2,29.74,South,171,21.0,27.0,91,0.15,,---,0.62,VWS V14.01,2013-01-09 07:18:00,
2013-01-08 23:23:00,50.8,48.3,29.75,South,180,11.0,33.0,91,0.16,,---,0.63,VWS V14.01,2013-01-09 07:23:00,
2013-01-08 23:28:00,50.8,48.0,29.75,SW,227,10.0,33.0,90,0.17,,---,0.64,VWS V14.01,2013-01-09 07:28:00,
2013-01-08 23:33:00,50.9,48.1,29.74,South,189,18.0,24.0,90,0.14,,---,0.65,VWS V14.01,2013-01-09 07:33:00,
2013-01-08 23:38:00,50.9,48.1,29.74,SW,217,8.0,26.0,90,0.15,,---,0.66,VWS V14.01,2013-01-09 07:38:00,
2013-01-08 23:43:00,50.9,48.1,29.75,South,172,5.0,26.0,90,0.15,,---,0.66,VWS V14.01,2013-01-09 07:43:00,
2013-01-08 23:48:00,50.8,48.0,29.75,South,190,11.0,15.0,90,0.12,,---,0.67,VWS V14.01,2013-01-09 07:48:00,
2013-01-08 23:53:00,50.8,48.0,29.75,South,182,9.0,26.0,90,0.13,,---,0.68,VWS V14.01,2013-01-09 07:53:00,
2013-01-08 23:58:00,50.7,47.9,29.75,WNW,287,2.0,26.0,90,0.14,,---,0.69,VWS V14.01,2013-01-09 07:58:00,